• Join FlightAware (Why Join?)
  • Login
  • US Flag 
01:02PM EST


 

Airport Tracker/Info


-or-


 

Live Flight TrackerFlight Track Log ✈ EJA831 ✈ 26-May-2013 ✈ KBJC - KSAF

Flight Track Log - Related Links

Times and Time Zones

All times are in EDT time to prevent confusion due to time zone crossing. See the EJA831 flight status page for this flight to view local times or setup timezone preferences in your user account.

Time Position Orientation Groundspeed Altitude Reporting Facility
EDT Latitude Longitude Course Direction KTS MPH feet Rate Location/Type
04:14PM 39.7608 -105.0375 158° South 267 307 11,400  Level Denver Center
04:15PM 39.6831 -105.0033 161° South 274 315 14,600 2,520 Climbing Denver Center
04:16PM 39.6075 -104.9725 163° South 284 327 16,600 1,800 Climbing Denver Center
04:17PM 39.5303 -104.9469 166° South 292 336 18,300 1,680 Climbing Denver Center
04:18PM 39.4411 -104.9753 194° South 303 349 20,100 1,740 Climbing Denver Center
04:19PM 39.3594 -105.0019 194° South 302 348 21,900 2,040 Climbing Denver Center
04:20PM 39.2736 -105.0267 193° South 314 361 24,400 1,980 Climbing Denver Center
04:21PM 39.1789 -105.0564 194° South 327 376 26,000 780 Climbing Denver Center
04:22PM 39.0906 -105.0858 195° South 346 398 26,000  Level Denver Center
04:23PM 38.9756 -105.1156 191° South 366 421 26,000  Level Denver Center
04:24PM 38.8714 -105.1419 191° South 386 444 26,000  Level Denver Center
04:25PM 38.7389 -105.1853 194° South 386 444 26,000  Level Denver Center
04:26PM 38.6389 -105.2147 193° South 385 443 26,000  Level Denver Center
04:27PM 38.5511 -105.2417 193° South 393 452 26,000  Level Denver Center
04:28PM 38.4136 -105.2836 193° South 398 458 26,000  Level Denver Center
04:29PM 38.3119 -105.3150 194° South 396 456 26,000  Level Denver Center
04:30PM 38.1903 -105.3511 193° South 399 459 26,000  Level Denver Center
04:31PM 38.0875 -105.3822 193° South 397 457 26,000  Level Denver Center
04:32PM 38.0017 -105.4067 193° South 397 457 26,000  Level Denver Center
04:33PM 37.8639 -105.4483 193° South 398 458 26,000  Level Denver Center
04:34PM 37.7431 -105.4839 193° South 400 460 26,000  Level Denver Center
04:35PM 37.6414 -105.5128 193° South 394 453 26,000  Level Denver Center
04:36PM 37.5383 -105.5431 193° South 392 451 26,000  Level Denver Center
04:37PM 37.4192 -105.5786 193° South 392 451 26,000  Level Denver Center
04:38PM 37.3172 -105.6086 193° South 393 452 26,000  Level Denver Center
04:39PM 37.1969 -105.6425 193° South 400 460 26,000  Level Denver Center
04:40PM 37.0944 -105.6719 193° South 397 457 26,000  Level Denver Center
04:41PM 36.9908 -105.7014 193° South 398 458 26,000  Level Denver Center
04:42PM 36.8708 -105.7364 193° South 395 455 26,000  Level Denver Center
04:43PM 36.7658 -105.7653 192° South 400 460 26,000  Level Denver Center
04:45PM 36.6456 -105.8003 193° South 398 458 26,000  Level Denver Center
04:45PM 36.5953 -105.8114 190° South 409 471 26,000  Level Albuquerque Center
04:46PM 36.4897 -105.8433 194° South 397 457 26,000 -900 Level Albuquerque Center
04:47PM 36.3847 -105.8753 194° South 392 451 24,200 -2,100 Descending Albuquerque Center
04:48PM 36.2861 -105.9039 193° South 373 429 21,800 -2,400 Descending Albuquerque Center
04:49PM 36.1919 -105.9289 192° South 353 406 19,400 -2,280 Descending Albuquerque Center
04:50PM 36.1022 -105.9544 193° South 338 389 17,200 -2,280 Descending Albuquerque Center
04:51PM 36.0181 -105.9783 193° South 318 366 14,800 -2,400 Descending Albuquerque Center
04:52PM 35.9347 -106.0017 193° South 312 359 12,300 -1,860 Descending Albuquerque Center
04:53PM 35.8569 -106.0225 192° South 299 344 11,000 -780 Descending Albuquerque Center
04:54PM 35.7789 -106.0378 189° South 259 298 10,800 -1,080 Descending Albuquerque Center
04:55PM 35.7211 -106.0397 182° South 230 265 8,900 -1,620 Descending Albuquerque Center
04:56PM 35.6700 -106.0400 180° South 207 238 7,600 -1,080 Descending Albuquerque Center
04:57PM 35.6442 -106.0675 221° Southwest 155 178 6,800 -780 Descending Albuquerque Center